createdAt,value
2023-04-18T00:00:33.352Z,8.38
2023-04-18T00:03:02.498Z,8.48
2023-04-18T00:05:31.246Z,8.61
2023-04-18T00:07:58.184Z,8.51
2023-04-18T00:10:25.446Z,8.53
2023-04-18T00:12:52.260Z,8.57
2023-04-18T00:15:20.479Z,8.45
2023-04-18T00:17:48.364Z,8.38
2023-04-18T00:20:15.384Z,8.43
2023-04-18T00:22:46.722Z,8.52
2023-04-18T00:25:13.716Z,8.43
2023-04-18T00:27:41.815Z,8.48
2023-04-18T00:30:09.342Z,8.58
2023-04-18T00:32:38.011Z,8.40
2023-04-18T00:35:05.455Z,8.46
2023-04-18T00:37:32.353Z,8.51
2023-04-18T00:39:59.293Z,8.51
2023-04-18T00:42:28.010Z,8.43
2023-04-18T00:44:55.328Z,8.53
2023-04-18T00:47:22.311Z,8.58
2023-04-18T00:49:49.762Z,8.38
2023-04-18T00:52:17.650Z,8.41
2023-04-18T00:54:45.247Z,8.43
2023-04-18T00:57:13.307Z,8.25
2023-04-18T00:59:40.938Z,8.23
2023-04-18T01:02:08.247Z,8.37
2023-04-18T01:04:35.636Z,8.18
2023-04-18T01:07:03.475Z,8.17
2023-04-18T01:09:30.731Z,8.34
2023-04-18T01:11:57.742Z,8.28
2023-04-18T01:14:24.812Z,8.28
2023-04-18T01:16:51.753Z,8.35
2023-04-18T01:19:19.526Z,8.43
2023-04-18T01:21:47.459Z,8.24
2023-04-18T01:24:16.433Z,8.26
2023-04-18T01:26:45.333Z,8.36
2023-04-18T01:29:12.411Z,7.95
2023-04-18T01:31:41.448Z,8.02
2023-04-18T01:34:09.230Z,8.16
2023-04-18T01:36:37.801Z,8.14
2023-04-18T01:39:04.952Z,8.07
2023-04-18T01:41:38.339Z,8.20
2023-04-18T01:44:05.803Z,8.10
2023-04-18T01:46:32.991Z,7.87
2023-04-18T01:49:08.430Z,7.96
2023-04-18T01:51:35.908Z,8.07
2023-04-18T01:54:02.996Z,7.88
2023-04-18T01:56:31.427Z,7.95
2023-04-18T01:59:00.164Z,7.99
2023-04-18T02:01:27.580Z,8.00
2023-04-18T02:03:55.130Z,8.04
2023-04-18T02:06:22.288Z,8.19
2023-04-18T02:08:50.262Z,8.19
2023-04-18T02:11:17.199Z,7.89
2023-04-18T02:13:44.360Z,8.04
2023-04-18T02:16:13.333Z,8.12
2023-04-18T02:18:43.250Z,8.03
2023-04-18T02:21:11.944Z,7.94
2023-04-18T02:23:38.888Z,7.98
2023-04-18T02:26:06.852Z,8.03
2023-04-18T02:28:33.728Z,7.74
2023-04-18T02:31:03.391Z,7.79
2023-04-18T02:33:30.334Z,8.03
2023-04-18T02:35:57.361Z,7.86
2023-04-18T02:38:24.333Z,7.89
2023-04-18T02:40:52.379Z,8.05
2023-04-18T02:43:20.874Z,7.96
2023-04-18T02:45:47.900Z,7.99
2023-04-18T02:48:14.891Z,8.05
2023-04-18T02:50:41.943Z,8.07
2023-04-18T02:53:08.898Z,7.87
2023-04-18T02:55:49.954Z,8.05
2023-04-18T02:58:17.573Z,8.14
2023-04-18T03:00:44.518Z,7.87
2023-04-18T03:03:14.404Z,7.88
2023-04-18T03:06:04.026Z,8.02
2023-04-18T03:08:33.382Z,7.71
2023-04-18T03:11:00.528Z,7.75
2023-04-18T03:13:29.960Z,7.95
2023-04-18T03:15:57.190Z,7.81
2023-04-18T03:18:25.008Z,7.82
2023-04-18T03:20:56.099Z,7.88
2023-04-18T03:23:23.339Z,8.03
2023-04-18T03:25:50.269Z,7.85
2023-04-18T03:28:17.392Z,8.03
2023-04-18T03:30:44.476Z,8.10
2023-04-18T03:33:11.377Z,7.84
2023-04-18T03:35:38.552Z,7.88
2023-04-18T03:38:05.509Z,8.12
2023-04-18T03:40:36.362Z,8.08
2023-04-18T03:43:10.306Z,8.02
2023-04-18T03:45:37.368Z,8.22
2023-04-18T03:48:05.486Z,8.32
2023-04-18T03:50:35.941Z,8.13
2023-04-18T03:53:05.767Z,8.19
2023-04-18T03:55:35.871Z,8.40
2023-04-18T03:58:03.397Z,8.12
2023-04-18T04:00:30.918Z,7.99
2023-04-18T04:03:07.250Z,8.22
2023-04-18T04:05:34.416Z,8.19
2023-04-18T04:08:01.580Z,8.17
2023-04-18T04:10:28.396Z,8.34
2023-04-18T04:12:55.472Z,8.52
2023-04-18T04:15:23.295Z,8.36
2023-04-18T04:18:00.066Z,8.47
2023-04-18T04:20:27.958Z,8.60
2023-04-18T04:23:02.871Z,8.40
2023-04-18T04:25:33.487Z,8.38
2023-04-18T04:28:04.540Z,8.50
2023-04-18T04:30:38.308Z,8.62
2023-04-18T04:33:06.678Z,8.59
2023-04-18T04:35:34.973Z,8.65
2023-04-18T04:38:02.022Z,8.80
2023-04-18T04:40:35.850Z,8.49
2023-04-18T04:43:15.906Z,8.75
2023-04-18T04:45:45.497Z,9.05
2023-04-18T04:48:12.555Z,8.79
2023-04-18T04:50:41.724Z,8.77
2023-04-18T04:53:11.942Z,8.97
2023-04-18T04:55:39.305Z,8.90
2023-04-18T04:58:06.315Z,8.70
2023-04-18T05:01:02.404Z,8.83
2023-04-18T05:03:31.795Z,8.98
2023-04-18T05:05:59.298Z,8.88
2023-04-18T05:08:26.388Z,8.95
2023-04-18T05:10:53.225Z,9.08
2023-04-18T05:13:20.197Z,8.59
2023-04-18T05:15:47.148Z,8.67
2023-04-18T05:18:16.982Z,8.82
2023-04-18T05:20:43.919Z,8.73
2023-04-18T05:23:10.867Z,8.66
2023-04-18T05:25:37.785Z,8.95
2023-04-18T05:28:04.930Z,9.17
2023-04-18T05:30:31.874Z,9.41
2023-04-18T05:32:58.753Z,9.48
2023-04-18T05:35:25.812Z,9.73
2023-04-18T05:37:52.796Z,9.66
2023-04-18T05:40:19.740Z,9.76
2023-04-18T05:42:46.699Z,9.79
2023-04-18T05:45:13.536Z,9.66
2023-04-18T05:47:40.650Z,9.60
2023-04-18T05:50:08.343Z,9.58
2023-04-18T05:52:39.084Z,9.52
2023-04-18T05:55:07.118Z,9.64
2023-04-18T05:57:34.050Z,9.78
2023-04-18T06:00:00.987Z,9.84
2023-04-18T06:02:28.192Z,10.09
2023-04-18T06:04:56.705Z,9.82
2023-04-18T06:07:25.478Z,10.02
2023-04-18T06:09:54.090Z,9.93
2023-04-18T06:12:20.988Z,10.22
2023-04-18T06:14:47.847Z,10.56
2023-04-18T06:17:14.773Z,10.78
2023-04-18T06:19:41.861Z,10.56
2023-04-18T06:22:08.693Z,10.65
2023-04-18T06:24:35.671Z,10.79
2023-04-18T06:27:03.195Z,10.91
2023-04-18T06:29:33.274Z,10.74
2023-04-18T06:32:00.373Z,11.01
2023-04-18T06:34:27.469Z,11.19
2023-04-18T06:36:54.608Z,10.98
2023-04-18T06:39:21.813Z,11.01
2023-04-18T06:41:49.589Z,10.91
2023-04-18T06:44:27.466Z,10.30
2023-04-18T06:46:55.151Z,10.26
2023-04-18T06:49:26.248Z,10.63
2023-04-18T06:51:53.899Z,10.86
2023-04-18T06:54:20.678Z,10.26
2023-04-18T06:56:47.883Z,10.47
2023-04-18T06:59:14.989Z,10.81
2023-04-18T07:01:45.094Z,10.65
2023-04-18T07:04:12.074Z,10.33
2023-04-18T07:06:39.187Z,10.85
2023-04-18T07:09:06.126Z,11.19
2023-04-18T07:11:33.179Z,10.52
2023-04-18T07:14:00.017Z,10.80
2023-04-18T07:16:27.157Z,11.58
2023-04-18T07:18:54.096Z,11.88
2023-04-18T07:21:20.997Z,12.14
2023-04-18T07:23:47.860Z,12.52
2023-04-18T07:40:21.315Z,12.19
2023-04-18T07:42:48.164Z,12.07
2023-04-18T07:45:16.003Z,12.13
2023-04-18T07:47:43.022Z,11.97
2023-04-18T07:50:10.492Z,11.47
2023-04-18T07:52:39.343Z,11.71
2023-04-18T07:55:07.114Z,11.85
2023-04-18T07:57:33.998Z,11.78
2023-04-18T08:00:01.015Z,10.88
2023-04-18T08:02:27.943Z,10.85
2023-04-18T08:04:56.231Z,10.34
2023-04-18T08:07:23.343Z,9.79
2023-04-18T08:09:50.492Z,10.12
2023-04-18T08:12:17.499Z,10.01
2023-04-18T08:14:44.370Z,10.09
2023-04-18T08:17:11.279Z,10.21
2023-04-18T08:19:38.164Z,10.19
2023-04-18T08:22:10.389Z,10.15
2023-04-18T08:24:39.103Z,10.13
2023-04-18T08:27:06.479Z,10.23
2023-04-18T08:29:33.691Z,10.22
2023-04-18T08:32:00.944Z,10.30
2023-04-18T08:34:29.420Z,10.52
2023-04-18T08:36:56.767Z,10.75
2023-04-18T08:39:25.263Z,10.83
2023-04-18T08:41:59.632Z,10.28
2023-04-18T08:44:29.674Z,10.30
2023-04-18T08:46:57.699Z,10.64
2023-04-18T08:49:25.348Z,10.51
2023-04-18T08:51:53.141Z,11.11
2023-04-18T08:54:22.691Z,11.47
2023-04-18T08:57:06.515Z,11.85
2023-04-18T08:59:35.781Z,11.99
2023-04-18T09:02:04.326Z,12.59
2023-04-18T09:04:39.914Z,13.45
2023-04-18T09:07:09.397Z,13.50
2023-04-18T09:09:53.560Z,13.62
2023-04-18T09:12:22.916Z,14.93
2023-04-18T09:14:51.636Z,17.22
2023-04-18T09:17:51.487Z,18.53
2023-04-18T09:20:41.479Z,17.25
2023-04-18T09:23:16.292Z,16.89
2023-04-18T09:25:48.870Z,16.05
2023-04-18T09:28:29.872Z,16.89
2023-04-18T09:31:18.196Z,16.83
2023-04-18T09:33:57.116Z,16.50
2023-04-18T09:36:29.108Z,16.26
2023-04-18T09:38:57.232Z,16.69
2023-04-18T09:41:24.531Z,16.40
2023-04-18T09:44:12.304Z,16.82
2023-04-18T09:46:43.293Z,17.59
2023-04-18T09:49:11.561Z,19.36
2023-04-18T09:51:41.645Z,18.21
2023-04-18T09:54:11.618Z,17.90
2023-04-18T09:56:42.035Z,17.88
2023-04-18T09:59:10.400Z,18.90
2023-04-18T10:01:38.593Z,20.01
2023-04-18T10:04:07.960Z,20.65
2023-04-18T10:06:38.608Z,23.92
2023-04-18T10:09:06.534Z,22.07
2023-04-18T10:11:33.664Z,22.32
2023-04-18T10:14:07.933Z,23.26
2023-04-18T10:16:36.270Z,22.72
2023-04-18T10:19:26.214Z,22.35
2023-04-18T10:21:58.480Z,21.47
2023-04-18T10:24:44.129Z,23.58
2023-04-18T10:27:11.202Z,24.61
2023-04-18T10:29:52.050Z,22.78
2023-04-18T10:32:22.238Z,24.91
2023-04-18T10:34:49.893Z,24.13
2023-04-18T10:37:18.086Z,25.54
2023-04-18T10:40:00.353Z,25.49
2023-04-18T10:42:45.681Z,26.61
2023-04-18T10:45:23.253Z,25.89
2023-04-18T10:47:50.975Z,25.06
2023-04-18T10:50:17.943Z,23.71
2023-04-18T10:52:44.970Z,22.87
2023-04-18T10:55:24.598Z,23.09
2023-04-18T10:57:51.847Z,24.36
2023-04-18T11:00:21.594Z,21.94
2023-04-18T11:02:51.723Z,24.39
2023-04-18T11:05:21.357Z,21.84
2023-04-18T11:07:49.475Z,22.89
2023-04-18T11:10:25.587Z,21.23
2023-04-18T11:12:53.528Z,22.49
2023-04-18T11:15:22.601Z,22.90
2023-04-18T11:17:56.472Z,20.72
2023-04-18T11:20:23.321Z,19.16
2023-04-18T11:22:57.765Z,18.81
2023-04-18T11:25:26.137Z,17.93
2023-04-18T11:27:53.209Z,17.81
2023-04-18T11:30:20.251Z,17.87
2023-04-18T11:32:47.334Z,17.38
2023-04-18T11:35:15.814Z,16.81
2023-04-18T11:37:50.022Z,16.55
2023-04-18T11:40:17.175Z,16.32
2023-04-18T11:42:52.883Z,16.79
2023-04-18T11:45:19.813Z,16.88
2023-04-18T11:47:46.862Z,16.75
2023-04-18T11:50:14.191Z,17.11
2023-04-18T11:52:42.675Z,17.32
2023-04-18T11:55:18.525Z,17.56
2023-04-18T11:57:56.479Z,17.07
2023-04-18T12:00:32.992Z,16.37
2023-04-18T12:03:01.999Z,16.06
2023-04-18T12:05:30.802Z,15.99
2023-04-18T12:08:11.415Z,16.03
2023-04-18T12:10:45.227Z,16.31
2023-04-18T12:13:12.177Z,16.20
2023-04-18T12:15:43.561Z,16.11
2023-04-18T12:18:12.702Z,15.96
2023-04-18T12:20:50.664Z,16.20
2023-04-18T12:23:36.859Z,15.98
2023-04-18T12:26:07.233Z,16.56
2023-04-18T12:28:35.452Z,16.76
2023-04-18T12:31:03.334Z,16.59
2023-04-18T12:33:30.591Z,16.11
2023-04-18T12:35:57.653Z,16.34
2023-04-18T12:38:24.743Z,16.52
2023-04-18T12:40:52.424Z,16.36
2023-04-18T12:43:19.706Z,16.42
2023-04-18T12:45:47.432Z,16.44
2023-04-18T12:48:14.926Z,16.43
2023-04-18T12:50:41.905Z,16.33
2023-04-18T12:53:08.816Z,16.20
2023-04-18T12:55:36.503Z,16.39
2023-04-18T12:58:03.610Z,16.44
2023-04-18T13:00:32.687Z,16.30
2023-04-18T13:03:00.364Z,16.46
2023-04-18T13:05:32.493Z,16.35
2023-04-18T13:08:12.851Z,16.27
2023-04-18T13:10:43.887Z,16.50
2023-04-18T13:13:10.830Z,16.38
2023-04-18T13:15:37.800Z,15.94
2023-04-18T13:18:06.513Z,15.65
2023-04-18T13:20:34.442Z,15.19
2023-04-18T13:23:04.158Z,14.63
2023-04-18T13:25:31.397Z,14.02
2023-04-18T13:27:58.708Z,13.14
2023-04-18T13:30:25.826Z,13.13
2023-04-18T13:32:52.931Z,13.12
2023-04-18T13:35:20.157Z,13.23
2023-04-18T13:37:47.097Z,13.20
2023-04-18T13:40:14.448Z,13.15
2023-04-18T13:42:41.358Z,13.31
2023-04-18T13:45:08.439Z,13.36
2023-04-18T13:47:35.414Z,13.44
2023-04-18T13:50:02.394Z,13.59
2023-04-18T13:52:29.310Z,13.49
2023-04-18T13:54:56.184Z,13.61
2023-04-18T13:57:23.426Z,13.73
2023-04-18T13:59:50.343Z,13.34
2023-04-18T14:02:17.411Z,13.28
2023-04-18T14:04:44.693Z,13.63
2023-04-18T14:07:11.626Z,13.63
2023-04-18T14:09:38.575Z,13.75
2023-04-18T14:12:06.100Z,13.86
2023-04-18T14:14:33.012Z,13.63
2023-04-18T14:16:59.901Z,13.78
2023-04-18T14:19:27.472Z,14.02
2023-04-18T14:21:54.722Z,14.04
2023-04-18T14:24:21.603Z,13.95
2023-04-18T14:26:48.703Z,13.76
2023-04-18T14:29:16.035Z,13.85
2023-04-18T14:31:43.066Z,13.68
2023-04-18T14:34:10.028Z,13.66
2023-04-18T14:36:37.088Z,13.51
2023-04-18T14:39:04.758Z,13.55
2023-04-18T14:41:31.916Z,13.41
2023-04-18T14:43:59.325Z,13.29
2023-04-18T14:46:28.248Z,13.40
2023-04-18T14:48:55.326Z,13.14
2023-04-18T14:51:24.018Z,13.34
2023-04-18T14:53:51.361Z,13.29
2023-04-18T14:56:21.214Z,13.49
2023-04-18T14:58:48.338Z,13.15
2023-04-18T15:01:15.633Z,12.67
2023-04-18T15:03:42.664Z,12.33
2023-04-18T15:06:09.873Z,12.31
2023-04-18T15:08:37.025Z,12.43
2023-04-18T15:11:08.313Z,12.57
2023-04-18T15:13:35.809Z,12.76
2023-04-18T15:16:03.207Z,13.10
2023-04-18T15:18:30.320Z,12.82
2023-04-18T15:20:59.158Z,13.12
2023-04-18T15:23:26.242Z,13.34
2023-04-18T15:25:53.235Z,13.50
2023-04-18T15:28:20.378Z,12.91
2023-04-18T15:30:47.588Z,12.80
2023-04-18T15:33:15.740Z,12.83
2023-04-18T15:35:42.800Z,12.98
2023-04-18T15:38:11.704Z,12.93
2023-04-18T15:40:38.601Z,12.73
2023-04-18T15:43:06.132Z,12.58
2023-04-18T15:45:33.548Z,12.31
2023-04-18T15:48:00.529Z,12.26
2023-04-18T15:50:27.785Z,12.10
2023-04-18T15:52:54.840Z,11.98
2023-04-18T15:55:21.749Z,11.94
2023-04-18T15:57:48.605Z,11.89
2023-04-18T16:00:16.377Z,11.84
2023-04-18T16:02:46.831Z,11.86
2023-04-18T16:05:15.544Z,11.85
2023-04-18T16:07:43.325Z,11.89
2023-04-18T16:10:11.259Z,12.03
2023-04-18T16:12:39.847Z,12.09
2023-04-18T16:15:08.757Z,12.35
2023-04-18T16:17:36.944Z,12.43
2023-04-18T16:20:04.842Z,12.60
2023-04-18T16:22:31.900Z,12.65
2023-04-18T16:24:58.840Z,12.51
2023-04-18T16:27:25.793Z,12.04
2023-04-18T16:29:53.872Z,11.55
2023-04-18T16:32:21.376Z,11.45
2023-04-18T16:34:48.629Z,11.23
2023-04-18T16:37:15.812Z,11.16
2023-04-18T16:39:43.111Z,11.16
2023-04-18T16:42:10.199Z,11.04
2023-04-18T16:44:37.065Z,11.03
2023-04-18T16:47:05.236Z,10.80
2023-04-18T16:49:32.154Z,10.64
2023-04-18T16:51:59.114Z,10.69
2023-04-18T16:54:26.081Z,10.48
2023-04-18T16:56:53.091Z,10.42
2023-04-18T16:59:19.920Z,10.38
2023-04-18T17:01:46.981Z,10.47
2023-04-18T17:04:15.445Z,10.54
2023-04-18T17:06:43.789Z,10.64
2023-04-18T17:09:13.671Z,10.68
2023-04-18T17:11:41.430Z,10.74
2023-04-18T17:14:08.915Z,10.69
2023-04-18T17:16:40.188Z,10.77
2023-04-18T17:19:07.690Z,10.79
2023-04-18T17:21:35.611Z,10.83
2023-04-18T17:24:04.129Z,10.89
2023-04-18T17:26:31.408Z,10.98
2023-04-18T17:28:58.431Z,11.03
2023-04-18T17:31:25.379Z,11.08
2023-04-18T17:33:52.930Z,11.18
2023-04-18T17:36:19.721Z,11.31
2023-04-18T17:38:49.004Z,11.34
2023-04-18T17:41:20.341Z,11.34
2023-04-18T17:43:48.046Z,11.36
2023-04-18T17:46:14.983Z,11.46
2023-04-18T17:48:42.001Z,11.49
2023-04-18T17:51:08.858Z,11.44
2023-04-18T17:53:35.863Z,11.49
2023-04-18T17:56:03.787Z,11.51
2023-04-18T17:58:31.303Z,11.41
2023-04-18T18:00:58.178Z,11.31
2023-04-18T18:03:25.480Z,11.43
2023-04-18T18:05:54.976Z,11.36
2023-04-18T18:08:22.730Z,10.98
2023-04-18T18:10:49.900Z,11.04
2023-04-18T18:13:17.042Z,10.85
2023-04-18T18:15:43.937Z,10.68
2023-04-18T18:18:11.100Z,10.59
2023-04-18T18:20:38.085Z,10.74
2023-04-18T18:23:04.945Z,10.61
2023-04-18T18:25:31.846Z,10.57
2023-04-18T18:27:58.770Z,10.69
2023-04-18T18:30:25.889Z,10.61
2023-04-18T18:32:53.591Z,10.53
2023-04-18T18:35:20.785Z,10.50
2023-04-18T18:37:47.965Z,10.48
2023-04-18T18:40:15.219Z,10.50
2023-04-18T18:42:42.663Z,10.54
2023-04-18T18:45:10.345Z,10.55
2023-04-18T18:47:39.647Z,10.51
2023-04-18T18:50:07.974Z,10.51
2023-04-18T18:52:35.356Z,10.49
2023-04-18T18:55:03.278Z,10.47
2023-04-18T18:57:30.758Z,10.47
2023-04-18T18:59:57.654Z,10.44
2023-04-18T19:02:24.638Z,10.39
2023-04-18T19:04:51.903Z,10.40
2023-04-18T19:07:18.913Z,10.32
2023-04-18T19:09:46.571Z,10.19
2023-04-18T19:12:13.590Z,10.13
2023-04-18T19:14:42.345Z,10.26
2023-04-18T19:17:09.597Z,10.15
2023-04-18T19:19:36.526Z,10.14
2023-04-18T19:22:03.436Z,10.22
2023-04-18T19:24:32.133Z,10.24
2023-04-18T19:26:59.874Z,10.25
2023-04-18T19:42:05.191Z,9.81
2023-04-18T19:44:32.443Z,9.76
2023-04-18T19:46:59.487Z,9.90
2023-04-18T19:49:26.435Z,10.06
2023-04-18T19:51:53.247Z,10.10
2023-04-18T19:54:21.654Z,10.03
2023-04-18T19:56:49.229Z,10.06
2023-04-18T19:59:16.415Z,10.16
2023-04-18T20:01:43.689Z,10.15
2023-04-18T20:04:10.854Z,10.06
2023-04-18T20:06:39.790Z,10.09
2023-04-18T20:09:08.709Z,10.00
2023-04-18T20:11:35.914Z,9.74
2023-04-18T20:14:03.462Z,9.69
2023-04-18T20:16:30.809Z,9.70
2023-04-18T20:19:01.777Z,9.55
2023-04-18T20:21:35.299Z,9.49
2023-04-18T20:24:02.188Z,9.74
2023-04-18T20:26:29.627Z,9.76
2023-04-18T20:28:56.519Z,9.43
2023-04-18T20:31:23.506Z,9.44
2023-04-18T20:33:50.377Z,9.62
2023-04-18T20:36:21.868Z,9.61
2023-04-18T20:38:50.475Z,9.48
2023-04-18T20:41:19.104Z,9.58
2023-04-18T20:43:46.942Z,9.69
2023-04-18T20:46:14.174Z,9.73
2023-04-18T20:48:41.199Z,9.71
2023-04-18T20:51:08.142Z,9.74
2023-04-18T20:53:35.070Z,9.79
2023-04-18T20:56:05.412Z,10.03
2023-04-18T20:58:32.292Z,10.12
2023-04-18T21:00:59.233Z,10.12
2023-04-18T21:03:26.219Z,10.06
2023-04-18T21:05:53.181Z,10.09
2023-04-18T21:08:20.246Z,10.10
2023-04-18T21:10:47.172Z,10.14
2023-04-18T21:13:14.131Z,10.13
2023-04-18T21:15:42.336Z,10.15
2023-04-18T21:18:09.579Z,10.12
2023-04-18T21:20:37.009Z,10.14
2023-04-18T21:23:03.874Z,10.18
2023-04-18T21:25:30.861Z,10.20
2023-04-18T21:27:57.790Z,10.16
2023-04-18T21:30:24.680Z,10.24
2023-04-18T21:32:51.798Z,10.35
2023-04-18T21:35:20.276Z,10.36
2023-04-18T21:37:48.305Z,10.28
2023-04-18T21:40:15.417Z,10.33
2023-04-18T21:42:42.312Z,10.39
2023-04-18T21:45:10.896Z,10.37
2023-04-18T21:47:38.495Z,10.26
2023-04-18T21:50:06.143Z,10.23
2023-04-18T21:52:33.057Z,10.32
2023-04-18T21:55:00.007Z,10.42
2023-04-18T21:57:26.907Z,10.37
2023-04-18T21:59:55.260Z,10.37
2023-04-18T22:05:09.012Z,10.41
2023-04-18T22:07:40.773Z,10.41
2023-04-18T22:10:17.896Z,10.40
2023-04-18T22:12:44.933Z,10.45
2023-04-18T22:15:12.533Z,10.40
2023-04-18T22:17:41.513Z,10.55
2023-04-18T22:20:08.995Z,10.49
2023-04-18T22:22:35.933Z,10.58
2023-04-18T22:25:02.900Z,10.65
2023-04-18T22:27:29.915Z,10.69
2023-04-18T22:29:56.834Z,10.70
2023-04-18T22:32:23.866Z,10.71
2023-04-18T22:34:50.717Z,10.60
2023-04-18T22:37:17.653Z,10.72
2023-04-18T22:39:44.742Z,10.80
2023-04-18T22:42:11.676Z,10.83
2023-04-18T22:44:38.474Z,10.81
2023-04-18T22:47:05.644Z,10.79
2023-04-18T22:49:33.445Z,10.85
2023-04-18T22:52:01.515Z,10.61
2023-04-18T22:54:28.515Z,10.58
2023-04-18T22:56:56.144Z,10.67
2023-04-18T22:59:23.086Z,10.78
2023-04-18T23:01:49.988Z,10.93
2023-04-18T23:04:17.082Z,11.01
2023-04-18T23:06:46.756Z,10.98
2023-04-18T23:09:16.601Z,11.00
2023-04-18T23:11:43.487Z,10.87
2023-04-18T23:14:10.338Z,10.86
2023-04-18T23:16:37.157Z,10.82
2023-04-18T23:19:04.597Z,10.97
2023-04-18T23:21:32.276Z,11.01
2023-04-18T23:23:59.898Z,11.02
2023-04-18T23:26:27.263Z,10.95
2023-04-18T23:28:54.255Z,10.67
2023-04-18T23:31:22.059Z,10.79
2023-04-18T23:33:48.990Z,10.80
2023-04-18T23:36:16.371Z,10.86
2023-04-18T23:38:43.409Z,10.96
2023-04-18T23:41:10.298Z,10.93
2023-04-18T23:43:37.106Z,10.87
2023-04-18T23:46:04.118Z,10.65
2023-04-18T23:48:31.109Z,10.61
2023-04-18T23:50:58.128Z,10.57
2023-04-18T23:53:25.323Z,10.73
2023-04-18T23:55:53.435Z,10.85
2023-04-18T23:58:20.356Z,10.81
